Time;durP1;ratioP1;P1;durP2;ratioP2;P2;SDS_P1;SDS_P2;PMS_P1;PMS_P2;Temp;Humidity;BMP_temperature;BMP_pressure;BME280_temperature;BME280_humidity;BME280_pressure;Samples;Min_cycle;Max_cycle;Signal;HPM_P1;HPM_P2
2023/03/23 00:02:12;;;;;;;15.52;7.57;;;11.20;99.90;;;;;;5082179;28;20051;-76
2023/03/23 00:04:37;;;;;;;18.23;8.35;;;11.20;99.90;;;;;;5116954;28;20051;-74
2023/03/23 00:07:03;;;;;;;17.52;7.88;;;11.20;99.90;;;;;;5117900;28;20134;-74
2023/03/23 00:09:33;;;;;;;16.88;7.90;;;11.20;99.90;;;;;;5117208;28;20100;-75
2023/03/23 00:12:04;;;;;;;22.35;8.55;;;11.10;99.90;;;;;;5117198;28;20189;-75
2023/03/23 00:14:40;;;;;;;14.43;6.80;;;11.10;99.90;;;;;;5100156;28;20498;-74
2023/03/23 00:17:09;;;;;;;17.50;7.37;;;11.20;99.90;;;;;;5099500;28;20055;-75
2023/03/23 00:19:45;;;;;;;13.75;6.80;;;11.20;99.90;;;;;;5117797;28;20058;-74
2023/03/23 00:22:16;;;;;;;16.35;7.13;;;11.20;99.90;;;;;;5118193;28;20388;-74
2023/03/23 00:24:43;;;;;;;15.98;6.43;;;11.20;99.90;;;;;;5098717;28;20039;-75
2023/03/23 00:27:12;;;;;;;15.73;7.28;;;11.30;99.90;;;;;;5116890;28;20083;-75
2023/03/23 00:29:38;;;;;;;14.07;6.75;;;11.20;99.90;;;;;;5098797;28;20047;-76
2023/03/23 00:32:04;;;;;;;15.32;6.78;;;11.20;99.90;;;;;;5082012;28;20043;-75
2023/03/23 00:34:32;;;;;;;14.70;6.50;;;11.20;99.90;;;;;;5098513;28;20054;-74
2023/03/23 00:36:58;;;;;;;13.95;6.28;;;11.20;99.90;;;;;;5116413;28;20499;-77
2023/03/23 00:39:28;;;;;;;16.33;5.87;;;11.20;99.90;;;;;;5116621;28;20039;-75
2023/03/23 00:42:00;;;;;;;14.20;5.70;;;11.20;99.90;;;;;;5098014;28;20066;-73
2023/03/23 00:44:28;;;;;;;17.35;6.22;;;11.20;99.90;;;;;;5099191;28;20048;-74
2023/03/23 00:46:56;;;;;;;10.20;5.20;;;11.20;99.90;;;;;;5116226;28;20495;-76
2023/03/23 00:49:26;;;;;;;11.13;4.07;;;11.30;99.90;;;;;;5099297;28;20105;-74
2023/03/23 00:51:53;;;;;;;7.95;3.33;;;11.20;99.90;;;;;;5098809;28;20491;-76
2023/03/23 00:54:20;;;;;;;8.00;2.88;;;11.40;99.90;;;;;;5116408;28;20059;-75
2023/03/23 00:56:46;;;;;;;7.82;3.30;;;11.40;99.90;;;;;;5116350;28;20167;-76
2023/03/23 00:59:12;;;;;;;11.07;3.55;;;11.40;99.90;;;;;;5098156;28;20047;-74
2023/03/23 01:01:39;;;;;;;10.13;3.42;;;11.40;99.90;;;;;;5116648;28;20043;-72
2023/03/23 01:04:05;;;;;;;13.32;3.40;;;11.40;99.90;;;;;;5098389;28;20179;-75
2023/03/23 01:06:35;;;;;;;12.13;3.50;;;11.40;99.90;;;;;;5116112;28;20058;-75
2023/03/23 01:09:03;;;;;;;8.52;3.00;;;11.40;99.90;;;;;;5116343;28;20050;-76
2023/03/23 01:11:29;;;;;;;10.85;3.03;;;11.40;99.90;;;;;;5099102;28;20050;-75
2023/03/23 01:13:55;;;;;;;8.57;3.30;;;11.40;99.90;;;;;;5098001;28;20051;-74
2023/03/23 01:16:21;;;;;;;8.23;2.67;;;11.40;99.90;;;;;;5116718;28;20056;-74
2023/03/23 01:18:47;;;;;;;7.53;3.00;;;11.40;99.90;;;;;;5098278;28;20055;-74
2023/03/23 01:21:15;;;;;;;9.82;3.83;;;11.40;99.90;;;;;;5116106;28;20077;-74
2023/03/23 01:23:42;;;;;;;8.88;3.47;;;11.30;99.90;;;;;;5116241;28;20085;-74
2023/03/23 01:26:10;;;;;;;9.33;3.77;;;11.30;99.90;;;;;;5097763;28;20051;-74
2023/03/23 01:28:37;;;;;;;11.35;3.90;;;11.30;99.90;;;;;;5098125;28;20051;-74
2023/03/23 01:31:05;;;;;;;9.68;4.32;;;11.30;99.90;;;;;;5098050;28;20039;-75
2023/03/23 01:33:31;;;;;;;10.43;4.28;;;11.30;99.90;;;;;;5116411;28;20040;-74
2023/03/23 01:35:58;;;;;;;12.75;4.00;;;11.20;99.90;;;;;;5115543;28;20086;-74
2023/03/23 01:38:24;;;;;;;12.80;4.28;;;11.20;99.90;;;;;;5097757;28;20047;-75
2023/03/23 01:40:50;;;;;;;7.45;3.72;;;11.20;99.90;;;;;;5098015;28;20051;-75
2023/03/23 01:43:16;;;;;;;11.55;4.50;;;11.30;99.90;;;;;;5115413;28;20040;-73
2023/03/23 01:45:42;;;;;;;10.67;3.70;;;11.30;99.90;;;;;;5097451;28;20059;-74
2023/03/23 01:48:16;;;;;;;8.07;3.25;;;11.30;99.90;;;;;;5080597;28;20309;-74
2023/03/23 01:50:52;;;;;;;8.57;3.65;;;11.40;99.90;;;;;;5115375;28;20043;-76
2023/03/23 01:53:20;;;;;;;10.20;3.92;;;11.40;99.90;;;;;;5115288;28;20053;-74
2023/03/23 01:55:50;;;;;;;11.30;3.85;;;11.50;99.90;;;;;;5115157;28;20044;-75
2023/03/23 01:58:20;;;;;;;12.38;3.90;;;11.40;99.90;;;;;;5115083;28;20463;-73
2023/03/23 02:00:47;;;;;;;10.38;4.00;;;11.40;99.90;;;;;;5096851;28;20051;-73
2023/03/23 02:03:17;;;;;;;11.88;3.50;;;11.40;99.90;;;;;;5097059;28;20051;-74
2023/03/23 02:05:43;;;;;;;9.85;3.22;;;11.40;99.90;;;;;;5096968;28;20053;-74
2023/03/23 02:08:10;;;;;;;8.93;3.58;;;11.30;99.90;;;;;;5080079;28;20052;-75
2023/03/23 02:10:37;;;;;;;10.35;3.65;;;11.30;99.90;;;;;;5097594;28;20043;-75
2023/03/23 02:13:04;;;;;;;;;;;11.30;99.90;;;;;;5097017;28;20036;-73
2023/03/23 02:15:44;;;;;;;10.38;3.22;;;11.30;99.90;;;;;;5096516;28;19924;-73
2023/03/23 02:18:49;;;;;;;8.57;3.25;;;11.30;99.90;;;;;;5115369;28;20051;-74
2023/03/23 02:21:46;;;;;;;11.85;3.20;;;11.30;99.90;;;;;;5114749;28;20152;-74
2023/03/23 02:24:36;;;;;;;7.78;2.47;;;11.30;99.90;;;;;;5096499;28;20043;-73
2023/03/23 02:27:16;;;;;;;6.88;2.80;;;11.40;99.90;;;;;;5114598;28;20054;-74
2023/03/23 02:29:54;;;;;;;10.38;2.95;;;11.30;99.90;;;;;;5097316;28;20048;-74
2023/03/23 02:32:46;;;;;;;9.63;3.30;;;11.30;99.90;;;;;;5115115;28;20062;-76
2023/03/23 02:35:28;;;;;;;8.15;2.75;;;11.30;99.90;;;;;;5097048;28;20467;-74
2023/03/23 02:38:04;;;;;;;6.20;2.70;;;11.30;99.90;;;;;;5114295;28;20499;-75
2023/03/23 02:40:42;;;;;;;7.90;2.83;;;11.30;99.90;;;;;;5079660;28;20055;-76
2023/03/23 02:43:21;;;;;;;9.98;2.97;;;11.30;99.90;;;;;;5079820;28;20134;-74
2023/03/23 02:45:47;;;;;;;11.68;3.55;;;11.30;99.90;;;;;;5096527;28;20051;-74
2023/03/23 02:48:15;;;;;;;9.73;3.38;;;11.20;99.90;;;;;;5080272;28;20093;-76
2023/03/23 02:50:44;;;;;;;9.27;3.45;;;11.30;99.90;;;;;;5114470;28;20057;-75
2023/03/23 02:53:12;;;;;;;7.10;3.35;;;11.20;99.90;;;;;;5113858;28;20491;-75
2023/03/23 02:55:41;;;;;;;8.98;3.47;;;11.20;99.90;;;;;;5114191;28;20118;-75
2023/03/23 02:58:08;;;;;;;10.35;3.88;;;11.30;99.90;;;;;;5114113;28;20055;-74
2023/03/23 03:00:34;;;;;;;7.78;3.30;;;11.30;99.90;;;;;;5096101;28;20040;-76
2023/03/23 03:03:02;;;;;;;8.40;3.50;;;11.30;99.90;;;;;;5113683;28;20048;-74
2023/03/23 03:05:47;;;;;;;14.50;3.42;;;11.20;99.90;;;;;;5113989;28;20047;-75
2023/03/23 03:08:22;;;;;;;8.68;3.42;;;11.20;99.90;;;;;;5114118;28;20054;-73
2023/03/23 03:11:02;;;;;;;8.30;3.53;;;11.20;99.90;;;;;;5114242;28;20387;-72
2023/03/23 03:13:34;;;;;;;8.75;3.75;;;11.20;99.90;;;;;;5113667;28;20065;-71
2023/03/23 03:16:39;;;;;;;14.70;3.75;;;11.30;99.90;;;;;;5114757;28;20442;-76
2023/03/23 03:19:25;;;;;;;8.25;3.75;;;11.30;99.90;;;;;;4984021;28;20049;-74
2023/03/23 03:21:54;;;;;;;7.95;3.30;;;11.30;99.90;;;;;;5107660;28;20119;-75
2023/03/23 03:24:21;;;;;;;7.90;3.35;;;11.30;99.90;;;;;;5114543;28;20078;-73
2023/03/23 03:26:50;;;;;;;8.57;3.58;;;11.30;99.90;;;;;;5114072;28;20047;-77
2023/03/23 03:29:19;;;;;;;9.98;3.72;;;11.30;99.90;;;;;;5114532;28;20090;-75
2023/03/23 03:31:47;;;;;;;7.55;3.45;;;11.30;99.90;;;;;;5114076;28;20075;-75
2023/03/23 03:34:17;;;;;;;7.55;3.38;;;11.40;99.90;;;;;;5114476;28;20040;-74
2023/03/23 03:36:46;;;;;;;10.88;3.75;;;11.40;99.90;;;;;;5114169;28;20066;-75
2023/03/23 03:39:15;;;;;;;9.07;3.80;;;11.40;99.90;;;;;;5079026;28;20043;-75
2023/03/23 03:41:41;;;;;;;10.98;4.20;;;11.40;99.90;;;;;;5096192;28;20075;-73
2023/03/23 03:44:08;;;;;;;10.23;4.23;;;11.50;99.90;;;;;;5095866;28;20156;-75
2023/03/23 03:46:35;;;;;;;7.28;3.53;;;11.50;99.90;;;;;;5095677;28;20599;-76
2023/03/23 03:49:03;;;;;;;9.32;4.35;;;11.50;99.90;;;;;;5113739;28;20471;-75
2023/03/23 03:51:30;;;;;;;7.80;3.67;;;11.50;99.90;;;;;;5095513;28;20047;-77
2023/03/23 03:53:56;;;;;;;;;;;11.50;99.90;;;;;;5113807;28;20039;-75
2023/03/23 03:56:22;;;;;;;13.23;4.43;;;11.50;99.90;;;;;;5113457;28;20378;-74
2023/03/23 03:58:49;;;;;;;15.10;5.43;;;11.40;99.90;;;;;;5112968;28;20036;-76
2023/03/23 04:01:17;;;;;;;12.43;4.22;;;11.40;99.90;;;;;;5113244;28;20127;-75
2023/03/23 04:03:44;;;;;;;9.75;4.95;;;11.40;99.90;;;;;;5095143;28;20377;-75
2023/03/23 04:06:12;;;;;;;9.52;4.60;;;11.40;99.90;;;;;;5095202;28;20047;-73
2023/03/23 04:08:38;;;;;;;12.95;4.72;;;11.40;99.90;;;;;;5113334;28;20058;-76
2023/03/23 04:11:04;;;;;;;11.35;5.22;;;11.40;99.90;;;;;;5113776;28;20108;-75
2023/03/23 04:13:30;;;;;;;9.85;4.35;;;11.40;99.90;;;;;;5096098;28;20047;-77
2023/03/23 04:15:56;;;;;;;9.27;4.38;;;11.50;99.90;;;;;;5115547;28;20464;-75
2023/03/23 04:18:22;;;;;;;10.32;4.90;;;11.40;99.90;;;;;;5082957;28;20123;-76
2023/03/23 04:20:49;;;;;;;11.50;4.53;;;11.50;99.90;;;;;;5098632;28;20060;-76
2023/03/23 04:23:21;;;;;;;10.07;4.68;;;11.60;99.90;;;;;;5116900;28;20047;-75
2023/03/23 04:25:48;;;;;;;10.13;4.22;;;11.50;99.90;;;;;;5116588;28;20495;-75
2023/03/23 04:28:16;;;;;;;8.35;4.63;;;11.60;99.90;;;;;;5116829;28;20054;-75
2023/03/23 04:30:43;;;;;;;10.52;4.57;;;11.60;99.90;;;;;;5116722;28;20130;-76
2023/03/23 04:33:14;;;;;;;12.95;5.45;;;11.60;99.90;;;;;;5098701;28;20391;-76
2023/03/23 04:35:41;;;;;;;11.05;4.65;;;11.60;99.90;;;;;;5116645;28;20043;-76
2023/03/23 04:38:08;;;;;;;8.32;3.72;;;11.60;99.90;;;;;;5099380;28;20091;-76
2023/03/23 04:40:39;;;;;;;11.50;4.18;;;11.60;99.90;;;;;;5116558;28;20502;-75
2023/03/23 04:43:06;;;;;;;13.38;4.30;;;11.60;99.90;;;;;;5117037;28;20096;-74
2023/03/23 04:45:33;;;;;;;13.05;5.07;;;11.60;99.90;;;;;;5098506;28;20056;-75
2023/03/23 04:48:01;;;;;;;8.75;4.05;;;11.60;99.90;;;;;;5081606;28;20054;-76
2023/03/23 04:50:32;;;;;;;;;;;11.60;99.90;;;;;;5117129;28;20164;-76
2023/03/23 04:53:03;;;;;;;8.75;3.17;;;11.70;99.90;;;;;;5115954;28;19923;-74
2023/03/23 04:55:37;;;;;;;10.65;3.53;;;11.70;99.90;;;;;;5099276;28;20429;-77
2023/03/23 04:58:05;;;;;;;10.27;3.95;;;11.60;99.90;;;;;;5116752;28;20047;-73
2023/03/23 05:00:32;;;;;;;11.57;3.95;;;11.60;99.90;;;;;;5098157;28;20044;-77
2023/03/23 05:02:58;;;;;;;13.38;3.92;;;11.60;99.90;;;;;;5116079;28;20407;-77
2023/03/23 05:05:25;;;;;;;10.38;3.50;;;11.70;99.90;;;;;;5097834;28;20040;-77
2023/03/23 05:07:54;;;;;;;12.35;3.65;;;11.70;99.90;;;;;;5115978;28;20055;-74
2023/03/23 05:10:19;;;;;;;13.32;4.15;;;11.70;99.90;;;;;;5116278;28;20055;-77
2023/03/23 05:12:45;;;;;;;13.57;4.20;;;11.60;99.90;;;;;;5115942;28;20150;-76
2023/03/23 05:15:13;;;;;;;12.55;3.95;;;11.50;99.90;;;;;;5098243;28;20196;-76
2023/03/23 05:17:40;;;;;;;11.50;3.88;;;11.50;99.90;;;;;;5115886;28;20094;-75
2023/03/23 05:20:11;;;;;;;9.38;3.67;;;11.50;99.90;;;;;;5115481;28;20469;-74
2023/03/23 05:22:38;;;;;;;12.20;3.80;;;11.40;99.90;;;;;;5098225;28;20087;-74
2023/03/23 05:25:05;;;;;;;9.88;3.90;;;11.30;99.90;;;;;;5115580;28;20040;-75
2023/03/23 05:27:32;;;;;;;11.82;4.03;;;11.20;99.90;;;;;;5115174;28;20050;-76
2023/03/23 05:29:58;;;;;;;15.93;4.40;;;11.10;99.90;;;;;;5097254;28;20047;-75
2023/03/23 05:32:30;;;;;;;10.23;3.60;;;11.10;99.90;;;;;;5097251;28;20044;-75
2023/03/23 05:35:00;;;;;;;12.48;2.88;;;11.10;99.90;;;;;;5116258;28;20130;-74
2023/03/23 05:37:28;;;;;;;11.65;3.03;;;11.20;99.90;;;;;;5115394;28;20213;-75
2023/03/23 05:39:55;;;;;;;9.18;2.30;;;11.10;99.90;;;;;;5115320;28;20039;-76
2023/03/23 05:42:22;;;;;;;9.15;2.08;;;11.10;99.90;;;;;;5115156;28;20108;-74
2023/03/23 05:44:49;;;;;;;12.48;2.15;;;11.00;99.90;;;;;;5115664;28;20375;-74
2023/03/23 05:47:15;;;;;;;8.02;2.10;;;11.00;99.90;;;;;;5114961;28;20503;-75
2023/03/23 05:49:41;;;;;;;6.03;1.58;;;11.00;99.90;;;;;;5114986;28;20058;-75
2023/03/23 05:52:07;;;;;;;9.93;2.08;;;11.00;99.90;;;;;;5115024;28;20040;-74
2023/03/23 05:54:34;;;;;;;5.55;1.58;;;11.00;99.90;;;;;;5115144;28;20610;-74
2023/03/23 05:57:00;;;;;;;11.02;1.67;;;11.00;99.90;;;;;;5115011;28;20043;-77
2023/03/23 05:59:25;;;;;;;7.35;1.67;;;11.00;99.90;;;;;;5115012;28;20073;-76
2023/03/23 06:01:53;;;;;;;8.00;1.70;;;11.00;99.90;;;;;;5096770;28;20047;-75
2023/03/23 06:04:19;;;;;;;9.55;1.80;;;11.00;99.90;;;;;;5114817;28;20043;-75
2023/03/23 06:06:45;;;;;;;4.88;1.73;;;10.90;99.90;;;;;;5097690;28;20104;-76
2023/03/23 06:09:11;;;;;;;6.32;1.50;;;10.90;99.90;;;;;;5115158;28;20080;-78
2023/03/23 06:11:37;;;;;;;8.70;1.77;;;10.90;99.90;;;;;;5097069;28;20131;-74
2023/03/23 06:14:06;;;;;;;6.85;1.80;;;10.90;99.90;;;;;;5096672;28;20301;-74
2023/03/23 06:16:32;;;;;;;7.93;2.05;;;10.90;99.90;;;;;;5096893;28;20387;-74
2023/03/23 06:19:00;;;;;;;8.07;1.67;;;10.90;99.90;;;;;;5096651;28;20090;-76
2023/03/23 06:21:26;;;;;;;6.32;1.90;;;11.00;99.90;;;;;;5114820;28;20130;-74
2023/03/23 06:23:52;;;;;;;9.07;2.20;;;10.90;99.90;;;;;;5114727;28;20054;-75
2023/03/23 06:26:20;;;;;;;9.38;1.98;;;11.00;99.90;;;;;;5096214;28;20043;-76
2023/03/23 06:28:45;;;;;;;6.95;2.10;;;10.90;99.90;;;;;;5096441;28;20086;-76
2023/03/23 06:31:11;;;;;;;10.48;2.10;;;10.90;99.90;;;;;;5096240;28;20079;-76
2023/03/23 06:33:38;;;;;;;10.77;2.15;;;10.90;99.90;;;;;;5114424;28;20043;-75
2023/03/23 06:36:04;;;;;;;10.52;2.20;;;10.90;99.90;;;;;;5114351;28;20055;-73
2023/03/23 06:38:31;;;;;;;13.03;2.10;;;10.90;99.90;;;;;;5112410;28;20444;-73
2023/03/23 06:40:57;;;;;;;11.80;2.60;;;11.00;99.90;;;;;;5097127;28;20286;-76
2023/03/23 06:43:23;;;;;;;11.85;2.30;;;11.00;99.90;;;;;;5114083;28;20177;-75
2023/03/23 06:45:50;;;;;;;13.98;2.45;;;11.10;99.90;;;;;;5114814;28;20035;-76
2023/03/23 06:48:15;;;;;;;12.27;2.43;;;11.10;99.90;;;;;;5113052;28;20048;-74
2023/03/23 06:50:45;;;;;;;9.80;2.90;;;11.10;99.90;;;;;;5114307;28;20046;-76
2023/03/23 06:53:11;;;;;;;17.15;3.05;;;11.20;99.90;;;;;;5114605;28;20055;-75
2023/03/23 06:55:38;;;;;;;10.27;2.30;;;11.10;99.90;;;;;;5096321;28;20035;-73
2023/03/23 06:58:05;;;;;;;11.65;2.67;;;11.20;99.90;;;;;;5095978;28;20048;-75
2023/03/23 07:00:32;;;;;;;13.98;2.35;;;11.20;99.90;;;;;;5113980;28;20126;-76
2023/03/23 07:02:58;;;;;;;19.52;3.00;;;11.30;99.90;;;;;;5114009;28;20043;-75
2023/03/23 07:05:25;;;;;;;12.98;2.83;;;11.20;99.90;;;;;;5113785;28;20050;-73
2023/03/23 07:07:50;;;;;;;10.87;2.70;;;11.30;99.90;;;;;;5096345;28;20476;-74
2023/03/23 07:10:16;;;;;;;14.63;2.65;;;11.30;99.90;;;;;;5095844;28;20297;-76
2023/03/23 07:12:42;;;;;;;13.93;2.67;;;11.30;99.90;;;;;;5114655;28;20091;-74
2023/03/23 07:15:12;;;;;;;12.32;2.33;;;11.30;99.90;;;;;;5113744;28;20044;-76
2023/03/23 07:17:39;;;;;;;13.73;2.63;;;11.30;99.90;;;;;;5079819;28;20055;-74
2023/03/23 07:20:06;;;;;;;9.23;2.42;;;11.30;99.90;;;;;;5113659;28;20067;-75
2023/03/23 07:22:32;;;;;;;13.35;2.63;;;11.40;99.90;;;;;;5095742;28;20048;-74
2023/03/23 07:24:58;;;;;;;12.10;2.25;;;11.40;99.90;;;;;;5113715;28;20040;-77
2023/03/23 07:27:24;;;;;;;14.68;3.17;;;11.40;99.90;;;;;;5113706;28;20369;-75
2023/03/23 07:29:50;;;;;;;10.55;2.50;;;11.40;99.90;;;;;;5113594;28;20051;-75
2023/03/23 07:32:16;;;;;;;13.50;2.33;;;11.40;99.90;;;;;;5113597;28;20059;-75
2023/03/23 07:34:42;;;;;;;10.25;1.48;;;11.50;99.90;;;;;;5113640;28;20044;-76
2023/03/23 07:37:08;;;;;;;13.02;2.10;;;11.50;99.90;;;;;;5095605;28;20054;-76
2023/03/23 07:39:35;;;;;;;15.63;2.73;;;11.70;99.90;;;;;;5095637;28;20061;-75
2023/03/23 07:42:01;;;;;;;16.87;2.73;;;11.70;99.90;;;;;;5096165;28;20368;-75
2023/03/23 07:44:30;;;;;;;12.15;2.17;;;11.80;99.90;;;;;;5095273;28;20055;-74
2023/03/23 07:46:55;;;;;;;15.38;2.15;;;11.80;99.90;;;;;;5113416;28;20054;-76
2023/03/23 07:49:21;;;;;;;13.30;2.10;;;11.90;99.90;;;;;;5114020;28;20044;-75
2023/03/23 07:51:47;;;;;;;17.52;2.65;;;11.90;99.90;;;;;;5117457;28;20126;-76
2023/03/23 07:54:16;;;;;;;16.25;2.05;;;12.00;99.90;;;;;;5117151;28;20448;-74
2023/03/23 07:56:42;;;;;;;15.07;2.47;;;12.10;99.90;;;;;;5099653;28;20040;-75
2023/03/23 07:59:09;;;;;;;15.10;2.33;;;12.10;99.90;;;;;;5082546;28;20368;-73
2023/03/23 08:01:35;;;;;;;10.23;1.98;;;12.10;99.90;;;;;;5117844;28;20083;-74
2023/03/23 08:04:01;;;;;;;19.15;2.42;;;12.20;99.90;;;;;;5082512;28;20518;-74
2023/03/23 08:06:27;;;;;;;11.85;2.40;;;12.30;99.90;;;;;;5117875;28;20047;-75
2023/03/23 08:08:53;;;;;;;13.77;2.80;;;12.20;99.90;;;;;;5117703;28;20047;-75
2023/03/23 08:11:19;;;;;;;18.60;2.92;;;12.30;99.90;;;;;;5082137;28;20051;-74
2023/03/23 08:13:46;;;;;;;32.42;4.30;;;12.20;99.90;;;;;;5116813;28;20468;-74
2023/03/23 08:16:13;;;;;;;16.88;2.95;;;12.10;99.90;;;;;;5117009;28;20043;-73
2023/03/23 08:18:39;;;;;;;12.80;2.78;;;12.10;99.90;;;;;;5117461;28;20126;-77
2023/03/23 08:21:08;;;;;;;14.73;2.97;;;12.20;99.90;;;;;;5118094;28;20189;-73
2023/03/23 08:23:36;;;;;;;18.05;3.22;;;12.20;99.90;;;;;;5098554;28;20119;-76
2023/03/23 08:26:06;;;;;;;13.88;2.47;;;12.30;99.90;;;;;;5117594;28;20380;-75
2023/03/23 08:28:33;;;;;;;15.35;2.47;;;12.20;99.90;;;;;;5098682;28;20040;-75
2023/03/23 08:30:58;;;;;;;17.70;3.00;;;12.30;99.90;;;;;;5098762;28;20399;-77
2023/03/23 08:33:25;;;;;;;21.17;3.40;;;12.40;99.90;;;;;;5116568;28;20050;-76
2023/03/23 08:35:58;;;;;;;16.50;2.67;;;12.30;99.90;;;;;;5099130;28;20464;-75
2023/03/23 08:38:24;;;;;;;16.98;3.75;;;12.30;99.90;;;;;;5116377;28;20039;-76
2023/03/23 08:40:51;;;;;;;12.80;3.47;;;12.30;99.90;;;;;;5117221;28;20042;-75
2023/03/23 08:43:17;;;;;;;15.27;3.15;;;12.20;99.90;;;;;;5116990;28;20691;-73
2023/03/23 08:45:43;;;;;;;16.80;3.45;;;12.20;99.90;;;;;;5098699;28;20127;-75
2023/03/23 08:48:10;;;;;;;22.30;3.20;;;12.30;99.90;;;;;;5116210;28;20131;-75
2023/03/23 08:50:36;;;;;;;16.73;3.22;;;12.40;99.90;;;;;;5116712;28;20055;-76
2023/03/23 08:53:02;;;;;;;12.77;3.20;;;12.50;99.90;;;;;;5098236;28;20043;-75
2023/03/23 08:55:29;;;;;;;20.77;4.43;;;12.60;99.90;;;;;;5081730;28;20043;-73
2023/03/23 08:57:55;;;;;;;18.27;3.50;;;12.60;99.90;;;;;;5116175;28;20040;-74
2023/03/23 09:00:24;;;;;;;18.10;3.20;;;12.70;99.90;;;;;;5082129;28;20119;-74
2023/03/23 09:02:52;;;;;;;12.05;3.03;;;12.70;99.90;;;;;;5116123;28;20059;-75
2023/03/23 09:05:22;;;;;;;20.10;3.88;;;12.90;99.90;;;;;;5116798;28;20047;-78
2023/03/23 09:07:50;;;;;;;20.65;3.33;;;12.90;99.90;;;;;;5115967;28;20407;-75
2023/03/23 09:10:17;;;;;;;13.80;3.20;;;13.10;99.90;;;;;;5115923;28;20495;-76
2023/03/23 09:12:44;;;;;;;11.90;3.15;;;13.20;99.90;;;;;;5115840;28;20126;-76
2023/03/23 09:15:13;;;;;;;13.80;3.85;;;13.10;99.90;;;;;;5097966;28;20135;-74
2023/03/23 09:17:42;;;;;;;16.70;3.90;;;13.00;99.90;;;;;;5098714;28;20058;-74
2023/03/23 09:20:12;;;;;;;17.58;3.90;;;12.90;99.90;;;;;;5115856;28;20059;-76
2023/03/23 09:22:46;;;;;;;12.63;3.45;;;12.80;99.90;;;;;;5097656;28;20055;-77
2023/03/23 09:25:15;;;;;;;17.17;3.55;;;12.70;99.90;;;;;;5116232;28;20047;-75
2023/03/23 09:27:42;;;;;;;20.45;3.95;;;12.70;99.90;;;;;;5115550;28;20046;-75
2023/03/23 09:30:14;;;;;;;16.42;3.30;;;12.80;99.90;;;;;;5115639;28;20054;-75
2023/03/23 09:32:40;;;;;;;14.20;2.90;;;13.00;99.90;;;;;;5115548;28;20050;-77
2023/03/23 09:35:12;;;;;;;15.65;3.13;;;13.10;99.90;;;;;;5098203;28;20083;-75
2023/03/23 09:37:39;;;;;;;12.45;2.65;;;13.20;99.90;;;;;;5115973;28;20056;-77
2023/03/23 09:40:06;;;;;;;;;;;13.30;99.90;;;;;;5116494;28;20035;-76
2023/03/23 09:42:56;;;;;;;17.42;3.08;;;13.30;99.90;;;;;;5097019;28;20372;-76
2023/03/23 09:45:51;;;;;;;16.13;2.88;;;13.30;99.90;;;;;;5115266;28;20054;-75
2023/03/23 09:48:42;;;;;;;13.43;2.90;;;13.10;99.90;;;;;;5116024;28;20044;-78
2023/03/23 09:51:16;;;;;;;11.93;3.40;;;12.90;99.90;;;;;;5115192;28;20048;-76
2023/03/23 09:53:45;;;;;;;12.50;2.92;;;12.80;99.90;;;;;;5115128;28;20047;-75
2023/03/23 09:56:15;;;;;;;15.13;3.05;;;12.80;99.90;;;;;;5115000;28;20408;-74
2023/03/23 09:58:56;;;;;;;10.50;2.63;;;12.80;99.90;;;;;;5115796;28;20047;-76
2023/03/23 10:01:32;;;;;;;8.25;1.88;;;12.70;99.90;;;;;;5115365;28;20051;-74
2023/03/23 10:04:16;;;;;;;13.75;2.65;;;12.70;99.90;;;;;;5114952;28;20040;-76
2023/03/23 10:06:42;;;;;;;12.70;2.58;;;12.70;99.90;;;;;;5097538;28;20051;-75
2023/03/23 10:09:14;;;;;;;13.95;2.30;;;13.00;99.90;;;;;;5096858;28;20040;-74
2023/03/23 10:11:54;;;;;;;12.93;2.55;;;13.30;99.90;;;;;;5080647;28;20375;-74
2023/03/23 10:14:29;;;;;;;9.75;2.40;;;13.50;99.90;;;;;;5095434;28;20082;-73
2023/03/23 10:17:16;;;;;;;13.50;2.38;;;13.80;99.90;;;;;;5115402;28;20380;-74
2023/03/23 10:19:54;;;;;;;7.75;1.50;;;14.00;99.90;;;;;;5114738;28;20059;-74
2023/03/23 10:22:29;;;;;;;13.43;1.67;;;14.20;99.90;;;;;;5114594;28;20052;-77
2023/03/23 10:25:06;;;;;;;10.63;1.80;;;14.10;99.90;;;;;;5114632;28;20047;-74
2023/03/23 10:28:01;;;;;;;8.75;1.67;;;14.30;99.90;;;;;;5114548;28;20058;-77
2023/03/23 10:30:33;;;;;;;10.07;1.60;;;14.30;99.90;;;;;;5114485;28;20054;-75
2023/03/23 10:33:24;;;;;;;9.02;1.70;;;14.50;99.90;;;;;;5114241;28;20062;-75
2023/03/23 10:36:00;;;;;;;10.05;1.50;;;14.90;99.90;;;;;;5114704;28;20379;-74
2023/03/23 10:38:47;;;;;;;10.13;1.17;;;14.90;99.90;;;;;;5114863;28;20082;-75
2023/03/23 10:41:18;;;;;;;8.90;1.20;;;14.90;99.90;;;;;;5114282;28;20040;-70
2023/03/23 10:43:49;;;;;;;12.13;1.27;;;14.90;99.90;;;;;;5114261;28;20043;-73
2023/03/23 10:46:50;;;;;;;11.90;1.20;;;15.00;99.90;;;;;;5095853;28;20140;-71
2023/03/23 10:49:24;;;;;;;10.85;1.33;;;14.80;99.90;;;;;;5096439;28;20168;-71
2023/03/23 10:52:26;;;;;;;9.60;1.20;;;14.90;99.90;;;;;;5114072;28;20047;-71
2023/03/23 10:55:16;;;;;;;10.00;1.38;;;14.90;99.90;;;;;;5096743;28;20437;-71
2023/03/23 10:57:45;;;;;;;15.82;1.58;;;15.00;99.90;;;;;;5104799;28;20097;-71
2023/03/23 11:00:14;;;;;;;12.63;1.45;;;15.00;99.90;;;;;;5095950;28;20510;-71
2023/03/23 11:02:57;;;;;;;10.30;1.35;;;15.00;99.90;;;;;;5114328;28;20043;-71
2023/03/23 11:05:40;;;;;;;12.35;1.48;;;14.90;99.90;;;;;;5113543;28;20471;-70
2023/03/23 11:08:19;;;;;;;6.28;1.25;;;14.80;99.90;;;;;;5114796;28;20051;-71
2023/03/23 11:10:57;;;;;;;12.70;1.70;;;14.90;99.90;;;;;;5113498;28;20534;-72
2023/03/23 11:13:31;;;;;;;13.65;1.50;;;15.00;99.90;;;;;;5113688;28;20134;-71
2023/03/23 11:15:58;;;;;;;12.45;1.77;;;15.00;99.90;;;;;;5114561;28;20094;-71
2023/03/23 11:18:26;;;;;;;11.15;2.10;;;15.10;99.90;;;;;;5114647;28;20175;-71
2023/03/23 11:20:57;;;;;;;12.90;1.65;;;15.30;99.90;;;;;;5114841;28;20089;-72
2023/03/23 11:23:42;;;;;;;7.50;0.98;;;15.40;99.90;;;;;;5113834;28;20043;-72
2023/03/23 11:26:27;;;;;;;12.88;1.63;;;15.70;99.90;;;;;;5099758;28;20048;-72
2023/03/23 11:28:57;;;;;;;10.10;1.50;;;15.70;99.90;;;;;;5099828;28;20135;-71
2023/03/23 11:31:31;;;;;;;8.23;1.20;;;16.00;99.90;;;;;;5118407;28;20078;-72
2023/03/23 11:33:58;;;;;;;12.40;1.73;;;15.90;99.90;;;;;;5117831;28;20083;-71
2023/03/23 11:36:40;;;;;;;10.23;1.15;;;15.80;99.90;;;;;;5100070;28;20051;-71
2023/03/23 11:39:21;;;;;;;12.95;1.50;;;15.70;99.90;;;;;;5117438;28;20515;-70
2023/03/23 11:41:48;;;;;;;12.75;1.30;;;15.60;99.90;;;;;;5117596;28;20051;-72
2023/03/23 11:44:14;;;;;;;15.52;1.65;;;15.50;99.90;;;;;;5100308;28;20043;-70
2023/03/23 11:46:48;;;;;;;9.93;1.17;;;15.80;99.90;;;;;;5100493;28;20371;-72
2023/03/23 11:49:46;;;;;;;10.00;2.05;;;16.00;99.90;;;;;;5099556;28;20435;-73
2023/03/23 11:52:25;;;;;;;6.50;1.02;;;15.90;99.90;;;;;;5118126;28;20051;-72
2023/03/23 11:55:18;;;;;;;9.30;1.70;;;15.90;99.90;;;;;;5100154;28;20123;-73
2023/03/23 11:57:44;;;;;;;10.10;1.45;;;15.80;99.90;;;;;;5116705;28;20074;-72
2023/03/23 12:00:21;;;;;;;12.65;1.80;;;15.90;99.90;;;;;;5117368;28;20475;-72
2023/03/23 12:03:12;;;;;;;10.13;1.20;;;15.80;99.90;;;;;;5098949;28;20047;-72
2023/03/23 12:05:55;;;;;;;12.50;1.67;;;15.80;99.90;;;;;;5117192;28;20036;-71
2023/03/23 12:08:27;;;;;;;11.73;1.77;;;15.80;99.90;;;;;;5098806;28;20043;-73
2023/03/23 12:10:58;;;;;;;14.18;1.65;;;15.90;99.90;;;;;;5117722;28;20040;-79
2023/03/23 12:13:30;;;;;;;13.20;1.48;;;16.00;99.90;;;;;;5098965;28;20040;-78
2023/03/23 12:16:08;;;;;;;9.18;1.60;;;16.00;99.90;;;;;;5098904;28;20048;-77
2023/03/23 12:19:05;;;;;;;14.27;2.30;;;16.10;99.90;;;;;;5099986;28;20111;-79
2023/03/23 12:21:53;;;;;;;10.32;1.17;;;16.20;99.90;;;;;;5117121;28;20044;-77
2023/03/23 12:24:34;;;;;;;10.57;1.13;;;16.30;99.90;;;;;;5104726;28;20124;-79
2023/03/23 12:27:11;;;;;;;7.38;0.90;;;16.40;99.90;;;;;;5099840;28;20054;-78
2023/03/23 12:29:43;;;;;;;11.85;1.05;;;16.30;99.90;;;;;;5116758;28;20047;-79
2023/03/23 12:32:32;;;;;;;10.05;1.27;;;16.30;99.90;;;;;;5116722;28;20043;-77
2023/03/23 12:35:07;;;;;;;9.65;1.23;;;16.20;99.90;;;;;;5117430;28;20519;-76
2023/03/23 12:37:38;;;;;;;10.55;1.17;;;16.30;99.90;;;;;;5097515;28;20075;-75
2023/03/23 12:40:29;;;;;;;10.48;1.20;;;16.10;99.90;;;;;;5081871;28;20379;-74
2023/03/23 12:42:59;;;;;;;8.50;0.90;;;16.30;99.90;;;;;;5099249;28;20644;-75
2023/03/23 12:45:55;;;;;;;11.77;1.23;;;16.40;99.90;;;;;;5097948;28;20051;-79
2023/03/23 12:48:33;;;;;;;48.97;9.70;;;16.70;99.90;;;;;;5116594;28;20093;-73
2023/03/23 12:51:02;;;;;;;15.98;3.35;;;16.80;99.90;;;;;;5098504;28;20475;-78
2023/03/23 12:54:02;;;;;;;15.52;2.55;;;16.80;99.90;;;;;;5117079;28;20051;-63
2023/03/23 12:56:36;;;;;;;23.50;3.65;;;16.70;99.90;;;;;;5108209;28;20059;-75
2023/03/23 12:59:22;;;;;;;11.73;1.13;;;16.60;99.90;;;;;;5116668;28;20047;-71
2023/03/23 13:01:56;;;;;;;16.48;3.10;;;16.60;99.90;;;;;;5116693;28;20387;-81